createdAt,value
2023-02-12T00:02:13.610Z,103310.19
2023-02-12T00:04:58.855Z,103312.00
2023-02-12T00:07:44.273Z,103306.81
2023-02-12T00:10:29.694Z,103306.81
2023-02-12T00:13:15.191Z,103302.50
2023-02-12T00:16:05.208Z,103312.06
2023-02-12T00:18:55.896Z,103313.75
2023-02-12T00:21:41.456Z,103312.81
2023-02-12T00:24:28.042Z,103319.72
2023-02-12T00:27:13.608Z,103321.31
2023-02-12T00:29:58.930Z,103310.94
2023-02-12T00:32:47.869Z,103311.78
2023-02-12T00:35:33.094Z,103308.19
2023-02-12T00:38:19.308Z,103308.97
2023-02-12T00:41:05.304Z,103314.09
2023-02-12T00:43:51.455Z,103303.63
2023-02-12T00:46:36.832Z,103305.34
2023-02-12T00:49:22.172Z,103307.06
2023-02-12T00:52:07.487Z,103308.66
2023-02-12T00:54:52.879Z,103306.16
2023-02-12T00:57:38.279Z,103300.94
2023-02-12T01:00:23.849Z,103292.34
2023-02-12T01:03:09.176Z,103292.19
2023-02-12T01:05:55.153Z,103292.13
2023-02-12T01:08:40.852Z,103287.88
2023-02-12T01:11:26.116Z,103291.47
2023-02-12T01:14:11.557Z,103290.56
2023-02-12T01:16:58.438Z,103286.28
2023-02-12T01:19:43.784Z,103286.34
2023-02-12T01:22:29.193Z,103281.16
2023-02-12T01:25:14.670Z,103279.44
2023-02-12T01:28:00.380Z,103270.69
2023-02-12T01:30:45.723Z,103271.41
2023-02-12T01:33:31.039Z,103271.41
2023-02-12T01:36:16.917Z,103263.56
2023-02-12T01:39:04.238Z,103267.75
2023-02-12T01:41:49.682Z,103262.81
2023-02-12T01:44:37.665Z,103261.66
2023-02-12T01:47:23.248Z,103256.41
2023-02-12T01:50:11.468Z,103256.31
2023-02-12T01:52:58.932Z,103253.56
2023-02-12T01:55:44.514Z,103254.28
2023-02-12T01:58:35.357Z,103255.03
2023-02-12T02:01:24.573Z,103250.41
2023-02-12T02:04:17.304Z,103243.34
2023-02-12T02:07:04.923Z,103245.88
2023-02-12T02:09:51.212Z,103246.59
2023-02-12T02:12:56.064Z,103243.91
2023-02-12T02:15:47.535Z,103236.84
2023-02-12T02:18:46.843Z,103247.22
2023-02-12T02:21:41.294Z,103240.16
2023-02-12T02:24:52.848Z,103237.56
2023-02-12T02:27:47.299Z,103241.09
2023-02-12T02:30:45.567Z,103240.28
2023-02-12T02:33:34.229Z,103242.97
2023-02-12T02:36:59.590Z,103239.59
2023-02-12T02:39:55.426Z,103233.63
2023-02-12T02:42:49.693Z,103251.84
2023-02-12T02:45:41.835Z,103246.75
2023-02-12T02:48:40.823Z,103244.16
2023-02-12T02:51:37.498Z,103249.34
2023-02-12T02:54:41.174Z,103255.38
2023-02-12T02:57:34.843Z,103252.78
2023-02-12T03:00:32.165Z,103255.38
2023-02-12T03:03:40.511Z,103253.66
2023-02-12T03:06:28.944Z,103255.53
2023-02-12T03:09:47.576Z,103248.78
2023-02-12T03:12:41.430Z,103245.63
2023-02-12T03:15:39.099Z,103233.78
2023-02-12T03:18:30.932Z,103240.16
2023-02-12T03:21:22.598Z,103243.91
2023-02-12T03:24:16.440Z,103226.78
2023-02-12T03:27:15.487Z,103229.53
2023-02-12T03:30:02.222Z,103227.03
2023-02-12T03:33:09.537Z,103228.00
2023-02-12T03:36:27.945Z,103223.75
2023-02-12T03:39:38.703Z,103216.03
2023-02-12T03:42:37.986Z,103214.34
2023-02-12T03:45:26.596Z,103217.84
2023-02-12T03:48:39.684Z,103207.44
2023-02-12T03:51:25.501Z,103209.31
2023-02-12T03:54:14.452Z,103210.34
2023-02-12T03:57:08.417Z,103203.63
2023-02-12T03:59:53.849Z,103202.81
2023-02-12T04:02:39.866Z,103201.97
2023-02-12T04:05:27.626Z,103187.38
2023-02-12T04:08:13.795Z,103204.63
2023-02-12T04:11:02.099Z,103202.97
2023-02-12T04:14:01.791Z,103207.25
2023-02-12T04:17:10.102Z,103202.81
2023-02-12T04:20:16.632Z,103200.13
2023-02-12T04:23:14.400Z,103203.53
2023-02-12T04:26:23.528Z,103198.25
2023-02-12T04:29:17.281Z,103199.88
2023-02-12T04:32:28.565Z,103199.94
2023-02-12T04:35:32.174Z,103202.41
2023-02-12T04:38:39.161Z,103206.72
2023-02-12T04:41:26.164Z,103208.34
2023-02-12T04:44:26.319Z,103210.03
2023-02-12T04:47:17.052Z,103210.84
2023-02-12T04:50:02.537Z,103214.19
2023-02-12T04:52:48.059Z,103218.41
2023-02-12T04:55:33.751Z,103220.03
2023-02-12T04:58:19.738Z,103223.28
2023-02-12T05:01:05.100Z,103226.63
2023-02-12T05:03:52.356Z,103230.84
2023-02-12T05:06:39.102Z,103233.28
2023-02-12T05:09:24.462Z,103234.91
2023-02-12T05:12:09.869Z,103236.47
2023-02-12T05:14:55.126Z,103232.00
2023-02-12T05:17:40.636Z,103231.00
2023-02-12T05:20:26.142Z,103227.38
2023-02-12T05:23:11.427Z,103235.06
2023-02-12T05:26:01.635Z,103239.19
2023-02-12T05:28:48.120Z,103236.38
2023-02-12T05:31:33.599Z,103238.88
2023-02-12T05:34:20.360Z,103232.72
2023-02-12T05:37:05.663Z,103228.34
2023-02-12T05:39:51.129Z,103226.38
2023-02-12T05:42:36.670Z,103231.59
2023-02-12T05:45:22.020Z,103236.59
2023-02-12T05:48:07.889Z,103227.94
2023-02-12T05:50:53.359Z,103238.31
2023-02-12T05:53:39.843Z,103235.66
2023-02-12T05:56:36.194Z,103237.41
2023-02-12T05:59:23.468Z,103235.66
2023-02-12T06:02:08.854Z,103225.19
2023-02-12T06:04:54.052Z,103229.47
2023-02-12T06:07:39.347Z,103231.09
2023-02-12T06:10:24.545Z,103233.69
2023-02-12T06:13:09.950Z,103233.69
2023-02-12T06:15:55.613Z,103222.31
2023-02-12T06:18:41.135Z,103233.63
2023-02-12T06:21:27.169Z,103233.53
2023-02-12T06:24:14.444Z,103227.59
2023-02-12T06:26:59.805Z,103231.19
2023-02-12T06:29:45.257Z,103226.78
2023-02-12T06:32:30.736Z,103233.78
2023-02-12T06:35:16.144Z,103231.19
2023-02-12T06:38:01.585Z,103230.38
2023-02-12T06:40:46.863Z,103229.38
2023-02-12T06:43:32.236Z,103227.66
2023-02-12T06:46:18.172Z,103226.06
2023-02-12T06:49:03.729Z,103228.75
2023-02-12T06:51:49.248Z,103232.31
2023-02-12T06:54:34.478Z,103227.13
2023-02-12T06:57:19.926Z,103222.84
2023-02-12T07:00:05.897Z,103211.63
2023-02-12T07:02:55.627Z,103216.94
2023-02-12T07:05:41.572Z,103216.09
2023-02-12T07:08:26.768Z,103220.47
2023-02-12T07:11:12.665Z,103222.34
2023-02-12T07:13:58.352Z,103223.31
2023-02-12T07:16:43.928Z,103221.63
2023-02-12T07:19:29.944Z,103232.09
2023-02-12T07:22:16.666Z,103225.19
2023-02-12T07:25:01.907Z,103227.94
2023-02-12T07:27:47.175Z,103226.28
2023-02-12T07:30:32.572Z,103228.25
2023-02-12T07:33:18.767Z,103232.63
2023-02-12T07:36:06.538Z,103237.03
2023-02-12T07:38:52.401Z,103242.22
2023-02-12T07:41:37.986Z,103244.91
2023-02-12T07:44:23.252Z,103243.25
2023-02-12T07:47:08.636Z,103243.34
2023-02-12T07:49:54.016Z,103256.47
2023-02-12T07:52:39.433Z,103246.19
2023-02-12T07:55:25.882Z,103252.28
2023-02-12T07:58:11.366Z,103251.47
2023-02-12T08:00:56.601Z,103252.28
2023-02-12T08:03:42.772Z,103254.94
2023-02-12T08:06:30.806Z,103262.81
2023-02-12T08:09:21.783Z,103266.22
2023-02-12T08:12:07.783Z,103269.72
2023-02-12T08:14:54.517Z,103269.72
2023-02-12T08:17:39.930Z,103273.22
2023-02-12T08:20:25.458Z,103271.50
2023-02-12T08:23:10.754Z,103273.28
2023-02-12T08:25:56.364Z,103270.69
2023-02-12T08:28:48.064Z,103264.78
2023-02-12T08:31:39.786Z,103269.16
2023-02-12T08:34:33.912Z,103270.13
2023-02-12T08:37:19.565Z,103279.78
2023-02-12T08:40:05.450Z,103281.66
2023-02-12T08:42:53.041Z,103274.81
2023-02-12T08:45:38.615Z,103271.50
2023-02-12T08:48:24.079Z,103272.47
2023-02-12T08:51:21.616Z,103273.53
2023-02-12T08:54:12.960Z,103261.56
2023-02-12T08:57:00.598Z,103264.31
2023-02-12T08:59:45.988Z,103261.00
2023-02-12T09:02:31.727Z,103263.75
2023-02-12T09:05:17.251Z,103256.94
2023-02-12T09:08:02.630Z,103248.50
2023-02-12T09:10:48.225Z,103253.06
2023-02-12T09:13:34.748Z,103262.00
2023-02-12T09:16:20.164Z,103257.88
2023-02-12T09:19:06.627Z,103261.56
2023-02-12T09:21:56.061Z,103257.44
2023-02-12T09:24:42.361Z,103247.25
2023-02-12T09:27:30.303Z,103237.81
2023-02-12T09:30:17.025Z,103240.63
2023-02-12T09:33:02.679Z,103244.38
2023-02-12T09:35:47.873Z,103232.31
2023-02-12T09:38:33.789Z,103227.38
2023-02-12T09:41:39.209Z,103225.88
2023-02-12T09:44:41.117Z,103219.13
2023-02-12T09:47:53.072Z,103213.16
2023-02-12T09:51:00.140Z,103206.53
2023-02-12T09:53:48.537Z,103211.06
2023-02-12T09:56:38.452Z,103211.34
2023-02-12T09:59:39.277Z,103207.34
2023-02-12T10:02:25.051Z,103206.72
2023-02-12T10:05:19.830Z,103201.09
2023-02-12T10:08:27.010Z,103201.34
2023-02-12T10:11:42.486Z,103203.00
2023-02-12T10:14:46.356Z,103204.78
2023-02-12T10:17:51.868Z,103206.38
2023-02-12T10:20:46.886Z,103197.56
2023-02-12T10:24:09.842Z,103191.50
2023-02-12T10:27:00.679Z,103190.75
2023-02-12T10:29:48.853Z,103195.34
2023-02-12T10:32:36.715Z,103194.59
2023-02-12T10:35:23.985Z,103197.25
2023-02-12T10:38:28.011Z,103194.94
2023-02-12T10:41:16.513Z,103204.72
2023-02-12T10:44:02.061Z,103193.72
2023-02-12T10:46:47.501Z,103189.75
2023-02-12T10:49:33.571Z,103190.94
2023-02-12T10:52:19.260Z,103189.44
2023-02-12T10:55:24.395Z,103184.50
2023-02-12T10:58:22.746Z,103179.41
2023-02-12T11:01:36.878Z,103182.28
2023-02-12T11:04:29.568Z,103180.19
2023-02-12T11:07:15.261Z,103178.69
2023-02-12T11:10:00.916Z,103165.66
2023-02-12T11:12:49.280Z,103162.03
2023-02-12T11:15:49.352Z,103170.47
2023-02-12T11:18:36.693Z,103170.34
2023-02-12T11:21:23.450Z,103165.25
2023-02-12T11:24:28.960Z,103167.03
2023-02-12T11:27:25.360Z,103161.91
2023-02-12T11:30:10.746Z,103152.09
2023-02-12T11:33:15.590Z,103161.72
2023-02-12T11:36:26.375Z,103161.97
2023-02-12T11:39:28.518Z,103152.81
2023-02-12T11:42:16.929Z,103143.50
2023-02-12T11:45:04.092Z,103136.03
2023-02-12T11:47:50.837Z,103145.75
2023-02-12T11:50:37.559Z,103136.31
2023-02-12T11:53:31.508Z,103132.19
2023-02-12T11:56:17.792Z,103142.75
2023-02-12T11:59:17.961Z,103135.91
2023-02-12T12:02:12.423Z,103127.41
2023-02-12T12:05:08.137Z,103127.28
2023-02-12T12:07:58.855Z,103134.75
2023-02-12T12:11:08.183Z,103126.78
2023-02-12T12:13:59.583Z,103124.09
2023-02-12T12:17:13.598Z,103113.75
2023-02-12T12:20:13.974Z,103101.22
2023-02-12T12:23:14.487Z,103105.31
2023-02-12T12:26:07.522Z,103095.97
2023-02-12T12:28:56.087Z,103092.38
2023-02-12T12:31:48.736Z,103079.09
2023-02-12T12:34:34.370Z,103070.13
2023-02-12T12:37:44.819Z,103070.50
2023-02-12T12:40:59.502Z,103064.25
2023-02-12T12:43:54.343Z,103069.38
2023-02-12T12:46:51.214Z,103065.84
2023-02-12T12:49:45.429Z,103056.75
2023-02-12T12:52:33.801Z,103053.63
2023-02-12T12:55:36.509Z,103058.25
2023-02-12T12:58:34.512Z,103057.44
2023-02-12T13:01:57.261Z,103055.63
2023-02-12T13:04:49.135Z,103051.47
2023-02-12T13:07:42.941Z,103048.19
2023-02-12T13:10:45.465Z,103039.53
2023-02-12T13:13:38.460Z,103031.66
2023-02-12T13:16:43.387Z,103032.91
2023-02-12T13:20:08.366Z,103029.91
2023-02-12T13:23:02.995Z,103020.84
2023-02-12T13:26:05.038Z,103034.31
2023-02-12T13:28:55.300Z,103035.91
2023-02-12T13:32:05.911Z,103034.53
2023-02-12T13:34:53.330Z,103030.69
2023-02-12T13:37:53.136Z,103035.13
2023-02-12T13:40:41.044Z,103035.41
2023-02-12T13:43:36.046Z,103034.59
2023-02-12T13:46:30.450Z,103024.16
2023-02-12T13:49:27.634Z,103027.44
2023-02-12T13:52:19.346Z,103017.38
2023-02-12T13:55:19.880Z,103012.03
2023-02-12T13:58:34.857Z,103011.00
2023-02-12T14:01:49.479Z,103013.38
2023-02-12T14:04:47.381Z,103013.94
2023-02-12T14:07:54.222Z,103011.81
2023-02-12T14:10:43.047Z,103014.75
2023-02-12T14:13:34.255Z,103013.28
2023-02-12T14:16:21.420Z,103002.44
2023-02-12T14:19:38.183Z,103008.53
2023-02-12T14:22:26.432Z,103001.50
2023-02-12T14:25:14.805Z,102998.50
2023-02-12T14:28:15.308Z,102995.19
2023-02-12T14:31:19.481Z,102995.09
2023-02-12T14:34:05.045Z,102989.41
2023-02-12T14:37:12.360Z,102994.53
2023-02-12T14:40:45.415Z,102994.38
2023-02-12T14:43:54.333Z,102989.72
2023-02-12T14:46:39.810Z,102995.56
2023-02-12T14:49:33.100Z,102988.34
2023-02-12T14:52:32.583Z,102983.56
2023-02-12T14:55:33.966Z,102976.03
2023-02-12T14:58:22.915Z,102982.31
2023-02-12T15:01:08.569Z,102977.91
2023-02-12T15:03:57.935Z,102982.53
2023-02-12T15:06:52.904Z,102977.47
2023-02-12T15:09:47.964Z,102969.31
2023-02-12T15:12:43.406Z,102978.78
2023-02-12T15:15:37.472Z,102970.72
2023-02-12T15:18:37.964Z,102970.41
2023-02-12T15:21:34.123Z,102967.63
2023-02-12T15:24:25.670Z,102972.78
2023-02-12T15:27:15.679Z,102976.34
2023-02-12T15:30:01.200Z,102972.50
2023-02-12T15:32:47.307Z,102972.88
2023-02-12T15:35:36.117Z,102973.16
2023-02-12T15:38:45.866Z,102968.41
2023-02-12T15:41:34.296Z,102972.06
2023-02-12T15:44:22.667Z,102970.88
2023-02-12T15:47:17.268Z,102971.53
2023-02-12T15:50:02.905Z,102975.50
2023-02-12T15:52:50.843Z,102976.09
2023-02-12T15:55:41.021Z,102972.41
2023-02-12T15:58:26.515Z,102975.59
2023-02-12T16:01:26.795Z,102977.00
2023-02-12T16:04:13.147Z,102980.16
2023-02-12T16:07:00.480Z,102971.25
2023-02-12T16:09:47.066Z,102982.53
2023-02-12T16:12:37.707Z,102982.47
2023-02-12T16:15:32.559Z,102975.53
2023-02-12T16:18:26.542Z,102969.22
2023-02-12T16:21:22.431Z,102972.63
2023-02-12T16:24:31.964Z,102966.22
2023-02-12T16:27:20.678Z,102978.16
2023-02-12T16:30:23.040Z,102979.69
2023-02-12T16:33:40.992Z,102981.78
2023-02-12T16:36:26.301Z,102979.81
2023-02-12T16:39:50.107Z,102969.03
2023-02-12T16:42:35.900Z,102964.28
2023-02-12T16:45:34.678Z,102967.97
2023-02-12T16:48:24.886Z,102958.00
2023-02-12T16:51:28.532Z,102960.97
2023-02-12T16:54:32.699Z,102955.22
2023-02-12T16:57:18.163Z,102971.34
2023-02-12T17:00:05.268Z,102956.25
2023-02-12T17:02:51.034Z,102961.25
2023-02-12T17:05:36.281Z,102956.53
2023-02-12T17:08:23.982Z,102953.63
2023-02-12T17:11:10.917Z,102974.94
2023-02-12T17:13:57.072Z,102979.13
2023-02-12T17:16:42.826Z,102976.31
2023-02-12T17:19:28.392Z,102988.34
2023-02-12T17:22:26.806Z,102989.00
2023-02-12T17:25:13.649Z,102991.47
2023-02-12T17:27:59.101Z,102993.06
2023-02-12T17:30:45.549Z,102988.53
2023-02-12T17:33:31.100Z,102987.25
2023-02-12T17:36:16.678Z,102986.84
2023-02-12T17:39:04.824Z,102981.09
2023-02-12T17:41:51.788Z,102987.47
2023-02-12T17:44:37.609Z,102996.63
2023-02-12T17:47:23.416Z,102986.81
2023-02-12T17:50:11.827Z,102995.03
2023-02-12T17:52:57.174Z,102987.53
2023-02-12T17:55:42.419Z,102986.97
2023-02-12T17:58:27.805Z,102980.28
2023-02-12T18:01:18.416Z,102986.59
2023-02-12T18:04:04.228Z,102983.47
2023-02-12T18:06:49.961Z,102991.66
2023-02-12T18:09:37.272Z,102991.19
2023-02-12T18:12:22.727Z,102998.66
2023-02-12T18:15:09.384Z,102997.53
2023-02-12T18:17:54.766Z,103000.47
2023-02-12T18:20:41.047Z,102996.38
2023-02-12T18:23:26.390Z,102998.47
2023-02-12T18:26:14.916Z,102999.09
2023-02-12T18:29:00.940Z,102995.53
2023-02-12T18:31:46.682Z,102996.41
2023-02-12T18:34:32.477Z,103000.72
2023-02-12T18:37:18.416Z,102996.34
2023-02-12T18:40:04.453Z,102998.13
2023-02-12T18:42:50.097Z,103001.53
2023-02-12T18:45:35.630Z,102994.81
2023-02-12T18:48:21.142Z,103006.94
2023-02-12T18:51:08.468Z,103007.69
2023-02-12T18:54:01.748Z,103003.06
2023-02-12T18:56:51.287Z,103009.50
2023-02-12T18:59:37.011Z,103007.13
2023-02-12T19:02:23.113Z,103001.41
2023-02-12T19:05:10.521Z,102996.69
2023-02-12T19:07:56.726Z,103003.25
2023-02-12T19:10:42.494Z,103001.81
2023-02-12T19:13:27.967Z,103011.81
2023-02-12T19:16:15.900Z,103002.53
2023-02-12T19:19:02.937Z,103002.34
2023-02-12T19:21:48.799Z,102992.63
2023-02-12T19:24:45.947Z,102997.28
2023-02-12T19:27:32.605Z,103007.63
2023-02-12T19:30:18.105Z,102994.59
2023-02-12T19:33:04.005Z,103003.88
2023-02-12T19:35:50.113Z,102988.34
2023-02-12T19:38:36.494Z,102982.47
2023-02-12T19:41:24.194Z,102985.06
2023-02-12T19:44:12.589Z,102981.59
2023-02-12T19:46:58.262Z,102977.28
2023-02-12T19:49:44.210Z,102984.97
2023-02-12T19:52:29.641Z,102984.19
2023-02-12T19:55:15.177Z,102981.50
2023-02-12T19:58:00.791Z,102982.03
2023-02-12T20:00:46.436Z,102971.16
2023-02-12T20:03:32.102Z,102975.25
2023-02-12T20:06:23.493Z,102970.69
2023-02-12T20:09:10.965Z,102963.84
2023-02-12T20:11:57.475Z,102961.25
2023-02-12T20:14:42.751Z,102964.47
2023-02-12T20:17:28.071Z,102957.31
2023-02-12T20:20:13.869Z,102951.72
2023-02-12T20:22:59.785Z,102949.03
2023-02-12T20:25:45.466Z,102962.50
2023-02-12T20:28:31.135Z,102950.53
2023-02-12T20:31:19.404Z,102943.75
2023-02-12T20:34:09.081Z,102944.69
2023-02-12T20:36:54.830Z,102951.34
2023-02-12T20:39:40.200Z,102953.25
2023-02-12T20:42:25.520Z,102949.50
2023-02-12T20:45:11.116Z,102940.94
2023-02-12T20:47:56.660Z,102943.00
2023-02-12T20:50:42.023Z,102941.03
2023-02-12T20:53:27.855Z,102932.31
2023-02-12T20:56:28.374Z,102927.84
2023-02-12T20:59:14.018Z,102930.84
2023-02-12T21:01:59.451Z,102927.47
2023-02-12T21:04:45.394Z,102935.16
2023-02-12T21:07:30.647Z,102934.03
2023-02-12T21:10:16.888Z,102931.97
2023-02-12T21:13:02.377Z,102928.97
2023-02-12T21:15:47.747Z,102925.50
2023-02-12T21:18:33.526Z,102912.75
2023-02-12T21:21:21.770Z,102912.91
2023-02-12T21:24:11.685Z,102910.41
2023-02-12T21:26:57.398Z,102916.00
2023-02-12T21:29:42.703Z,102919.59
2023-02-12T21:32:28.268Z,102917.19
2023-02-12T21:35:14.359Z,102912.19
2023-02-12T21:38:00.092Z,102914.22
2023-02-12T21:40:45.507Z,102916.19
2023-02-12T21:43:30.856Z,102924.13
2023-02-12T21:46:16.559Z,102922.41
2023-02-12T21:49:03.376Z,102934.38
2023-02-12T21:51:49.272Z,102935.34
2023-02-12T21:54:35.011Z,102922.16
2023-02-12T21:57:21.949Z,102923.94
2023-02-12T22:00:08.154Z,102924.75
2023-02-12T22:02:58.337Z,102930.78
2023-02-12T22:05:43.974Z,102922.94
2023-02-12T22:08:29.449Z,102929.38
2023-02-12T22:11:15.807Z,102925.53
2023-02-12T22:14:01.514Z,102922.38
2023-02-12T22:16:47.807Z,102919.16
2023-02-12T22:19:33.495Z,102912.75
2023-02-12T22:22:18.980Z,102907.56
2023-02-12T22:25:05.000Z,102908.53
2023-02-12T22:27:50.585Z,102889.53
2023-02-12T22:30:36.246Z,102898.56
2023-02-12T22:33:21.784Z,102900.75
2023-02-12T22:36:09.674Z,102895.97
2023-02-12T22:38:58.160Z,102889.91
2023-02-12T22:41:43.595Z,102893.31
2023-02-12T22:44:29.097Z,102901.78
2023-02-12T22:47:14.588Z,102897.41
2023-02-12T22:50:00.398Z,102890.81
2023-02-12T22:52:45.930Z,102901.25
2023-02-12T22:55:31.378Z,102900.13
2023-02-12T22:58:17.389Z,102892.16
2023-02-12T23:01:17.983Z,102886.72
2023-02-12T23:04:03.505Z,102880.34
2023-02-12T23:06:49.177Z,102874.09
2023-02-12T23:09:34.544Z,102869.25
2023-02-12T23:12:20.068Z,102866.41
2023-02-12T23:15:05.998Z,102874.19
2023-02-12T23:17:51.992Z,102864.00
2023-02-12T23:20:37.505Z,102871.13
2023-02-12T23:23:23.157Z,102871.69
2023-02-12T23:26:08.816Z,102873.94
2023-02-12T23:28:54.824Z,102875.44
2023-02-12T23:31:40.645Z,102874.09
2023-02-12T23:34:26.490Z,102880.25
2023-02-12T23:37:11.770Z,102877.38
2023-02-12T23:39:57.198Z,102883.84
2023-02-12T23:42:42.546Z,102890.31
2023-02-12T23:45:28.906Z,102876.41
2023-02-12T23:48:15.282Z,102876.34
2023-02-12T23:51:00.623Z,102876.34
2023-02-12T23:53:45.961Z,102887.56
2023-02-12T23:56:31.438Z,102890.47
2023-02-12T23:59:16.743Z,102883.59
